Athol Springs, NY (14010)

8:25 PM EDT on September 02, 2014 (GMT -0400)
Hamburg | Change Station
CLOSE
Current Station
Personal Weather Station
Location: Hamburg, NY
Elevation: 594 ft
Nearby Weather Stations

Elev 594 ft 42.76 °N, 78.88 °W | Updated 7 minutes ago

Mostly Cloudy
Mostly Cloudy
70.9 °F
Feels Like 70.9 °F
N
18.0
Wind Variable Wind from WSW
Gusts 20.0 mph

Today
High -- | Low -- °F
--% Chance of Precip.
Yesterday
High -- | Low -- °F
Precip. -- in
6:41 AM 7:48 PM
First Quarter, 56% visible
Pressure 29.85 in
Visibility 10.0 miles
Clouds Scattered Clouds 1600 ft
Scattered Clouds 3200 ft
Mostly Cloudy 27000 ft
Dew Point 68 °F
Humidity 90%
Rainfall 0.15 in
Snow Depth Not available.
UV 0 out of 12
Pollen 7.20 out of 12
Ozone Good
PM2.5 Good
Flu Activity Not available.
METAR KBUF 022354Z 24009KT 10SM SCT016 SCT032 BKN270 20/18 A2986 RMK AO2 SLP108 MDT CU DSNT E 60008 T02000178 10233 20194 53009

More Conditions Fewer Conditions

Pressure 29.85 in
Visibility 10.0 miles
Clouds Scattered Clouds 1600 ft
Scattered Clouds 3200 ft
Mostly Cloudy 27000 ft
Dew Point 68 °F
Humidity 90%
Rainfall 0.15 in
Snow Depth Not available.
UV 0 out of 12
Pollen 7.20 out of 12
Ozone Good
PM2.5 Good
Flu Activity Not available.
METAR KBUF 022354Z 24009KT 10SM SCT016 SCT032 BKN270 20/18 A2986 RMK AO2 SLP108 MDT CU DSNT E 60008 T02000178 10233 20194 53009

More Conditions Fewer Conditions

10-Day Weather Forecast

Almanac

Astronomy

Sep. 02, 2014 Rise Set
Actual Time 6:41 AM EDT 7:48 PM EDT
Civil Twilight 6:12 AM EDT 8:17 PM EDT
Nautical Twilight 5:37 AM EDT 8:51 PM EDT
Astronomical Twilight 5:00 AM EDT 9:28 PM EDT
Moon 2:33 PM EDT (9/2) No Moon Set
Length of Visible Light 14h 05m
Length of Day
13h 06m
Tomorrow will be 2m 48s shorter.
First Quarter, 56% of the Moon is Illuminated
Today
First Quarter
Sep 8
Full
Sep 15
Last Quarter
Sep 24
New
Oct 1
First Quarter

Today's Extremes

State Highs State Lows

Community

WunderPhotos

Upload Photos

1,749,816 photos uploaded!

Nearby

Air Quality

  Air Quality AQ Index Pollutant
Yesterday Good
OZONE
Yesterday Good
PM2.5
Current Good
OZONE
Current Good
PM2.5
Tuesday Good
PM2.5
Tuesday Good
OZONE
Wednesday Good
PM2.5
Wednesday Good
OZONE

Snow Depth

Station Depth Elevation
No new snow has been reported.

Earthquake Activity

City Distance Mag. Time & Date
No recent earthquake activity has been reported nearby.
Minimum magnitude displayed is 2.5.

Coastal Water Temperatures

Place Temperature
Buffalo, NY 73.9 °F

Nearby Weather Stations